createdAt,value
2018-05-29T00:01:00.016Z,11.03
2018-05-29T00:03:28.322Z,10.70
2018-05-29T00:05:55.865Z,11.40
2018-05-29T00:08:23.386Z,11.97
2018-05-29T00:10:50.887Z,12.13
2018-05-29T00:13:18.427Z,11.97
2018-05-29T00:15:46.702Z,13.10
2018-05-29T00:18:14.976Z,12.17
2018-05-29T00:20:43.302Z,12.37
2018-05-29T00:23:10.860Z,12.87
2018-05-29T00:25:38.394Z,11.87
2018-05-29T00:28:05.948Z,11.53
2018-05-29T00:30:33.513Z,10.93
2018-05-29T00:33:01.596Z,9.00
2018-05-29T00:35:29.191Z,10.70
2018-05-29T00:37:56.716Z,9.40
2018-05-29T00:40:24.268Z,10.83
2018-05-29T00:42:51.770Z,9.90
2018-05-29T00:45:19.296Z,10.17
2018-05-29T00:47:46.827Z,10.70
2018-05-29T00:50:15.107Z,10.47
2018-05-29T00:52:42.630Z,10.33
2018-05-29T00:55:21.984Z,10.20
2018-05-29T00:57:49.520Z,9.53
2018-05-29T01:00:17.076Z,10.40
2018-05-29T01:02:44.602Z,9.97
2018-05-29T01:05:12.139Z,10.13
2018-05-29T01:07:39.688Z,10.73
2018-05-29T01:10:07.960Z,10.20
2018-05-29T01:12:36.277Z,11.30
2018-05-29T01:15:04.207Z,12.37
2018-05-29T01:17:32.485Z,11.97
2018-05-29T01:20:00.799Z,12.13
2018-05-29T01:22:28.308Z,11.87
2018-05-29T01:24:56.600Z,12.10
2018-05-29T01:27:24.117Z,12.53
2018-05-29T01:29:52.429Z,12.00
2018-05-29T01:32:20.706Z,11.87
2018-05-29T01:34:49.058Z,12.27
2018-05-29T01:37:16.586Z,12.43
2018-05-29T01:39:44.114Z,12.97
2018-05-29T01:42:11.663Z,13.23
2018-05-29T01:44:39.932Z,13.27
2018-05-29T01:47:08.207Z,13.90
2018-05-29T01:49:36.473Z,13.20
2018-05-29T01:52:04.756Z,13.60
2018-05-29T01:54:33.024Z,13.13
2018-05-29T01:57:01.304Z,14.07
2018-05-29T01:59:29.625Z,14.07
2018-05-29T02:01:57.251Z,14.47
2018-05-29T02:04:25.601Z,13.83
2018-05-29T02:06:53.079Z,16.00
2018-05-29T02:09:21.387Z,15.83
2018-05-29T02:11:48.928Z,15.27
2018-05-29T02:14:16.453Z,16.40
2018-05-29T02:16:43.955Z,17.83
2018-05-29T02:19:11.481Z,18.23
2018-05-29T02:21:39.768Z,17.47
2018-05-29T02:24:08.043Z,17.60
2018-05-29T02:26:36.349Z,19.10
2018-05-29T02:29:03.868Z,18.70
2018-05-29T02:31:32.163Z,19.33
2018-05-29T02:34:00.457Z,20.23
2018-05-29T02:36:28.511Z,22.13
2018-05-29T02:38:56.023Z,21.13
2018-05-29T02:41:24.306Z,20.67
2018-05-29T02:43:51.833Z,24.03
2018-05-29T02:46:19.389Z,25.23
2018-05-29T02:48:46.921Z,26.90
2018-05-29T02:51:14.428Z,23.63
2018-05-29T02:53:41.965Z,22.23
2018-05-29T02:56:09.452Z,25.07
2018-05-29T02:58:36.969Z,26.67
2018-05-29T03:01:04.492Z,29.93
2018-05-29T03:03:32.795Z,29.77
2018-05-29T03:06:00.295Z,29.27
2018-05-29T03:08:27.825Z,28.97
2018-05-29T03:10:55.325Z,29.40
2018-05-29T03:13:22.869Z,29.30
2018-05-29T03:15:50.393Z,28.30
2018-05-29T03:18:17.901Z,29.30
2018-05-29T03:20:45.425Z,29.57
2018-05-29T03:23:12.936Z,30.97
2018-05-29T03:25:41.215Z,31.70
2018-05-29T03:28:09.493Z,29.70
2018-05-29T03:30:37.779Z,29.00
2018-05-29T03:33:05.299Z,27.80
2018-05-29T03:35:32.827Z,29.83
2018-05-29T03:38:00.361Z,29.70
2018-05-29T03:40:27.869Z,26.73
2018-05-29T03:42:55.413Z,25.43
2018-05-29T03:45:22.952Z,25.57
2018-05-29T03:47:50.519Z,25.53
2018-05-29T03:50:18.042Z,26.83
2018-05-29T03:52:46.338Z,24.90
2018-05-29T03:55:14.759Z,25.07
2018-05-29T03:57:42.313Z,24.13
2018-05-29T04:00:09.816Z,24.37
2018-05-29T04:02:38.345Z,23.10
2018-05-29T04:05:05.856Z,21.97
2018-05-29T04:07:34.117Z,22.17
2018-05-29T04:10:02.446Z,23.50
2018-05-29T04:12:30.014Z,21.67
2018-05-29T04:14:58.366Z,21.33
2018-05-29T04:17:25.956Z,23.03
2018-05-29T04:19:53.486Z,21.53
2018-05-29T04:22:21.008Z,20.50
2018-05-29T04:24:49.305Z,20.57
2018-05-29T04:27:16.820Z,21.67
2018-05-29T04:29:45.162Z,21.13
2018-05-29T04:32:12.686Z,21.50
2018-05-29T04:34:40.979Z,22.97
2018-05-29T04:37:08.522Z,23.03
2018-05-29T04:39:36.790Z,23.47
2018-05-29T04:42:05.068Z,22.17
2018-05-29T04:44:33.350Z,21.47
2018-05-29T04:47:01.684Z,22.83
2018-05-29T04:49:29.172Z,22.80
2018-05-29T04:51:57.458Z,22.73
2018-05-29T04:54:25.753Z,22.67
2018-05-29T04:56:53.336Z,23.37
2018-05-29T04:59:20.842Z,23.37
2018-05-29T05:01:48.356Z,22.57
2018-05-29T05:04:16.326Z,22.30
2018-05-29T05:06:43.848Z,22.10
2018-05-29T05:09:11.400Z,22.07
2018-05-29T05:11:39.675Z,23.07
2018-05-29T05:14:07.961Z,22.33
2018-05-29T05:16:35.544Z,20.27
2018-05-29T05:19:03.114Z,22.07
2018-05-29T05:21:30.620Z,21.30
2018-05-29T05:23:58.173Z,20.73
2018-05-29T05:26:25.723Z,18.83
2018-05-29T05:28:53.254Z,19.07
2018-05-29T05:31:20.776Z,17.93
2018-05-29T05:33:48.292Z,17.20
2018-05-29T05:36:16.144Z,17.57
2018-05-29T05:38:44.603Z,16.47
2018-05-29T05:41:12.140Z,15.97
2018-05-29T05:43:39.676Z,16.33
2018-05-29T05:46:07.975Z,14.17
2018-05-29T05:48:35.510Z,14.80
2018-05-29T05:51:04.177Z,15.37
2018-05-29T05:53:32.442Z,13.70
2018-05-29T05:56:00.068Z,14.70
2018-05-29T05:58:27.999Z,13.77
2018-05-29T06:00:55.503Z,12.83
2018-05-29T06:03:23.904Z,11.60
2018-05-29T06:05:51.410Z,11.03
2018-05-29T06:08:19.670Z,9.40
2018-05-29T06:10:48.040Z,8.30
2018-05-29T06:13:15.558Z,8.60
2018-05-29T06:15:43.074Z,9.33
2018-05-29T06:18:11.364Z,8.80
2018-05-29T06:20:38.919Z,9.10
2018-05-29T06:23:07.091Z,8.60
2018-05-29T06:25:34.648Z,8.70
2018-05-29T06:28:02.172Z,9.57
2018-05-29T06:30:29.712Z,9.47
2018-05-29T06:32:57.239Z,9.47
2018-05-29T06:35:24.734Z,9.23
2018-05-29T06:37:53.381Z,8.60
2018-05-29T06:40:20.881Z,8.53
2018-05-29T06:42:48.423Z,9.13
2018-05-29T06:45:15.932Z,9.37
2018-05-29T06:47:44.296Z,9.13
2018-05-29T06:50:12.594Z,8.87
2018-05-29T06:52:40.129Z,9.27
2018-05-29T06:55:08.412Z,8.77
2018-05-29T06:57:36.692Z,9.03
2018-05-29T07:00:04.993Z,8.87
2018-05-29T07:02:33.071Z,8.87
2018-05-29T07:05:00.602Z,9.83
2018-05-29T07:07:28.883Z,9.10
2018-05-29T07:09:56.809Z,9.90
2018-05-29T07:12:24.322Z,9.47
2018-05-29T07:14:53.288Z,9.13
2018-05-29T07:17:21.575Z,9.50
2018-05-29T07:19:49.888Z,9.70
2018-05-29T07:22:17.538Z,7.83
2018-05-29T07:24:45.072Z,9.13
2018-05-29T07:27:13.828Z,8.93
2018-05-29T07:29:42.594Z,8.60
2018-05-29T07:32:10.129Z,8.33
2018-05-29T07:34:37.673Z,8.63
2018-05-29T07:37:05.249Z,8.90
2018-05-29T07:39:32.787Z,8.80
2018-05-29T07:42:00.321Z,8.60
2018-05-29T07:44:29.155Z,8.47
2018-05-29T07:46:57.497Z,8.47
2018-05-29T07:49:25.779Z,7.70
2018-05-29T07:51:54.091Z,7.50
2018-05-29T07:54:21.608Z,7.43
2018-05-29T07:56:49.912Z,7.67
2018-05-29T07:59:17.434Z,6.07
2018-05-29T08:01:44.946Z,6.33
2018-05-29T08:04:12.501Z,6.50
2018-05-29T08:06:40.011Z,5.90
2018-05-29T08:09:07.538Z,7.07
2018-05-29T08:11:35.922Z,6.80
2018-05-29T08:14:04.188Z,6.90
2018-05-29T08:16:31.720Z,6.70
2018-05-29T08:19:00.366Z,7.70
2018-05-29T08:21:27.888Z,8.07
2018-05-29T08:23:56.821Z,7.33
2018-05-29T08:26:25.091Z,7.63
2018-05-29T08:28:53.383Z,7.43
2018-05-29T08:31:20.899Z,7.90
2018-05-29T08:33:48.421Z,7.10
2018-05-29T08:36:15.954Z,9.47
2018-05-29T08:38:44.256Z,8.30
2018-05-29T08:41:11.751Z,8.00
2018-05-29T08:43:39.307Z,7.33
2018-05-29T08:46:06.848Z,7.50
2018-05-29T08:48:34.310Z,7.23
2018-05-29T08:51:01.810Z,6.93
2018-05-29T08:53:30.113Z,6.50
2018-05-29T08:55:57.668Z,7.47
2018-05-29T08:58:25.272Z,6.90
2018-05-29T09:00:52.821Z,6.57
2018-05-29T09:03:20.352Z,6.93
2018-05-29T09:05:47.856Z,6.53
2018-05-29T09:08:15.379Z,6.53
2018-05-29T09:10:42.900Z,7.40
2018-05-29T09:13:11.738Z,7.60
2018-05-29T09:15:39.258Z,7.40
2018-05-29T09:18:07.565Z,7.33
2018-05-29T09:20:35.077Z,8.07
2018-05-29T09:23:04.955Z,7.60
2018-05-29T09:25:32.470Z,8.23
2018-05-29T09:28:00.801Z,7.50
2018-05-29T09:30:28.331Z,7.90
2018-05-29T09:32:55.810Z,7.30
2018-05-29T09:35:24.068Z,8.70
2018-05-29T09:37:52.709Z,8.90
2018-05-29T09:40:20.996Z,8.17
2018-05-29T09:42:48.538Z,8.17
2018-05-29T09:45:16.862Z,8.90
2018-05-29T09:47:44.368Z,8.53
2018-05-29T09:50:11.898Z,8.60
2018-05-29T09:52:39.427Z,7.67
2018-05-29T09:55:08.119Z,7.57
2018-05-29T09:57:35.668Z,8.13
2018-05-29T10:00:03.205Z,7.97
2018-05-29T10:02:31.501Z,8.20
2018-05-29T10:04:59.005Z,33.47
2018-05-29T10:07:27.631Z,6.30
2018-05-29T10:09:55.894Z,7.10
2018-05-29T10:12:24.179Z,6.77
2018-05-29T10:14:52.501Z,6.60
2018-05-29T10:17:20.029Z,5.57
2018-05-29T10:19:47.543Z,5.83
2018-05-29T10:22:15.111Z,6.17
2018-05-29T10:24:42.647Z,6.97
2018-05-29T10:27:10.189Z,6.37
2018-05-29T10:29:38.699Z,5.87
2018-05-29T10:32:06.197Z,5.33
2018-05-29T10:34:33.690Z,5.50
2018-05-29T10:37:01.194Z,5.37
2018-05-29T10:39:29.502Z,4.83
2018-05-29T10:41:58.496Z,5.07
2018-05-29T10:44:26.015Z,5.47
2018-05-29T10:46:54.300Z,4.80
2018-05-29T10:49:22.580Z,4.60
2018-05-29T10:51:50.869Z,4.57
2018-05-29T10:54:19.391Z,5.37
2018-05-29T10:56:47.664Z,4.87
2018-05-29T10:59:15.232Z,4.50
2018-05-29T11:01:42.696Z,5.03
2018-05-29T11:04:10.951Z,4.73
2018-05-29T11:06:38.501Z,4.40
2018-05-29T11:09:06.019Z,5.77
2018-05-29T11:11:34.295Z,4.50
2018-05-29T11:14:03.662Z,5.33
2018-05-29T11:16:31.200Z,5.00
2018-05-29T11:18:58.701Z,5.20
2018-05-29T11:21:26.242Z,5.43
2018-05-29T11:23:53.825Z,4.65
2018-05-29T11:26:22.197Z,4.90
2018-05-29T11:28:50.555Z,5.33
2018-05-29T11:31:18.121Z,5.40
2018-05-29T11:33:45.646Z,5.23
2018-05-29T11:36:13.168Z,4.55
2018-05-29T11:38:41.459Z,4.95
2018-05-29T11:41:09.029Z,4.57
2018-05-29T11:43:36.554Z,5.32
2018-05-29T11:46:04.835Z,5.62
2018-05-29T11:48:33.164Z,5.37
2018-05-29T11:51:00.657Z,4.97
2018-05-29T11:53:28.944Z,4.70
2018-05-29T11:55:57.221Z,5.40
2018-05-29T11:58:25.521Z,5.50
2018-05-29T12:00:53.069Z,4.90
2018-05-29T12:03:20.679Z,4.63
2018-05-29T12:05:48.188Z,5.07
2018-05-29T12:08:15.780Z,4.47
2018-05-29T12:10:43.424Z,5.00
2018-05-29T12:13:10.938Z,4.80
2018-05-29T12:15:38.456Z,5.27
2018-05-29T12:18:06.100Z,4.68
2018-05-29T12:20:33.761Z,4.70
2018-05-29T12:23:01.291Z,4.35
2018-05-29T12:25:29.573Z,4.72
2018-05-29T12:27:57.853Z,4.68
2018-05-29T12:30:25.383Z,4.55
2018-05-29T12:32:52.908Z,4.30
2018-05-29T12:35:20.605Z,4.60
2018-05-29T12:37:49.698Z,4.80
2018-05-29T12:40:17.214Z,4.57
2018-05-29T12:42:45.931Z,4.47
2018-05-29T12:45:13.439Z,4.20
2018-05-29T12:47:40.969Z,5.35
2018-05-29T12:50:09.309Z,4.97
2018-05-29T12:52:37.597Z,3.83
2018-05-29T12:55:05.160Z,4.62
2018-05-29T12:57:32.682Z,5.00
2018-05-29T13:00:00.196Z,4.53
2018-05-29T13:02:28.627Z,4.20
2018-05-29T13:04:56.124Z,4.73
2018-05-29T13:07:24.226Z,4.77
2018-05-29T13:09:51.762Z,4.73
2018-05-29T13:12:20.076Z,5.13
2018-05-29T13:14:50.651Z,4.23
2018-05-29T13:17:20.353Z,5.30
2018-05-29T13:19:47.898Z,4.90
2018-05-29T13:22:15.405Z,4.33
2018-05-29T13:24:43.692Z,4.83
2018-05-29T13:27:11.234Z,4.60
2018-05-29T13:29:39.502Z,4.63
2018-05-29T13:32:07.802Z,4.37
2018-05-29T13:34:35.329Z,4.60
2018-05-29T13:37:02.835Z,4.23
2018-05-29T13:39:30.350Z,4.50
2018-05-29T13:41:58.649Z,4.50
2018-05-29T13:44:28.074Z,5.17
2018-05-29T13:46:55.736Z,4.93
2018-05-29T13:49:24.296Z,4.53
2018-05-29T13:51:52.596Z,4.87
2018-05-29T13:54:20.101Z,4.70
2018-05-29T13:56:47.598Z,5.13
2018-05-29T13:59:15.884Z,5.30
2018-05-29T14:01:43.397Z,5.93
2018-05-29T14:04:10.915Z,5.30
2018-05-29T14:06:38.423Z,5.00
2018-05-29T14:09:06.711Z,5.03
2018-05-29T14:11:36.600Z,4.93
2018-05-29T14:14:04.125Z,5.10
2018-05-29T14:16:31.642Z,5.47
2018-05-29T14:18:59.961Z,5.47
2018-05-29T14:21:27.563Z,5.20
2018-05-29T14:23:55.181Z,5.40
2018-05-29T14:26:22.712Z,5.50
2018-05-29T14:28:50.247Z,5.57
2018-05-29T14:31:18.540Z,5.33
2018-05-29T14:33:46.889Z,5.67
2018-05-29T14:36:14.455Z,5.83
2018-05-29T14:38:43.007Z,5.23
2018-05-29T14:41:10.559Z,4.83
2018-05-29T14:43:38.243Z,5.00
2018-05-29T14:46:05.724Z,5.40
2018-05-29T14:48:34.028Z,5.53
2018-05-29T14:51:01.530Z,5.07
2018-05-29T14:53:29.054Z,5.30
2018-05-29T14:55:56.570Z,5.80
2018-05-29T14:58:25.078Z,5.20
2018-05-29T15:00:52.584Z,5.87
2018-05-29T15:03:20.103Z,5.17
2018-05-29T15:05:47.601Z,5.60
2018-05-29T15:08:15.152Z,5.33
2018-05-29T15:10:43.555Z,6.37
2018-05-29T15:13:11.855Z,5.27
2018-05-29T15:15:40.110Z,5.43
2018-05-29T15:18:07.630Z,5.87
2018-05-29T15:20:35.122Z,4.83
2018-05-29T15:23:03.976Z,5.40
2018-05-29T15:25:31.478Z,5.93
2018-05-29T15:27:59.757Z,5.57
2018-05-29T15:30:28.030Z,5.40
2018-05-29T15:32:56.306Z,5.13
2018-05-29T15:35:24.863Z,4.80
2018-05-29T15:37:52.394Z,4.97
2018-05-29T15:40:19.931Z,5.40
2018-05-29T15:42:47.434Z,5.37
2018-05-29T15:45:14.947Z,5.10
2018-05-29T15:47:42.773Z,5.47
2018-05-29T15:50:10.318Z,5.50
2018-05-29T15:52:37.836Z,5.00
2018-05-29T15:55:05.378Z,4.83
2018-05-29T15:57:33.681Z,5.10
2018-05-29T16:00:01.260Z,4.67
2018-05-29T16:02:28.756Z,4.57
2018-05-29T16:04:57.022Z,4.90
2018-05-29T16:07:24.529Z,5.43
2018-05-29T16:09:52.031Z,5.20
2018-05-29T16:12:19.575Z,4.80
2018-05-29T16:14:47.081Z,4.83
2018-05-29T16:17:14.604Z,5.87
2018-05-29T16:19:42.129Z,5.73
2018-05-29T16:22:10.942Z,5.30
2018-05-29T16:24:38.461Z,5.07
2018-05-29T16:27:05.969Z,5.37
2018-05-29T16:29:33.605Z,5.03
2018-05-29T16:32:02.301Z,5.00
2018-05-29T16:34:31.347Z,5.40
2018-05-29T16:36:58.859Z,5.90
2018-05-29T16:39:26.391Z,8.17
2018-05-29T16:41:53.935Z,5.57
2018-05-29T16:44:21.501Z,4.67
2018-05-29T16:46:49.013Z,4.50
2018-05-29T16:49:17.310Z,4.63
2018-05-29T16:51:44.835Z,5.77
2018-05-29T16:54:12.340Z,4.60
2018-05-29T16:56:39.893Z,5.30
2018-05-29T16:59:07.423Z,5.63
2018-05-29T17:01:34.948Z,4.97
2018-05-29T17:04:02.466Z,4.87
2018-05-29T17:06:30.044Z,4.83
2018-05-29T17:08:57.553Z,4.80
2018-05-29T17:11:25.061Z,5.87
2018-05-29T17:13:52.615Z,6.47
2018-05-29T17:16:20.130Z,5.27
2018-05-29T17:18:47.659Z,5.50
2018-05-29T17:21:15.214Z,4.63
2018-05-29T17:23:42.733Z,5.30
2018-05-29T17:26:11.429Z,4.93
2018-05-29T17:28:38.997Z,4.33
2018-05-29T17:31:07.246Z,5.50
2018-05-29T17:33:35.546Z,5.20
2018-05-29T17:36:03.043Z,5.27
2018-05-29T17:38:30.561Z,4.50
2018-05-29T17:40:58.193Z,4.90
2018-05-29T17:43:26.450Z,4.80
2018-05-29T17:45:53.966Z,5.37
2018-05-29T17:48:21.476Z,4.60
2018-05-29T17:50:49.772Z,4.80
2018-05-29T17:53:17.309Z,4.97
2018-05-29T17:55:45.598Z,4.63
2018-05-29T17:58:13.158Z,4.70
2018-05-29T18:00:41.453Z,4.50
2018-05-29T18:03:09.846Z,5.00
2018-05-29T18:05:37.391Z,4.80
2018-05-29T18:08:04.964Z,5.13
2018-05-29T18:10:33.243Z,4.70
2018-05-29T18:13:00.758Z,5.50
2018-05-29T18:15:29.063Z,4.57
2018-05-29T18:17:56.678Z,5.33
2018-05-29T18:20:24.980Z,4.60
2018-05-29T18:22:53.257Z,4.80
2018-05-29T18:25:21.608Z,5.30
2018-05-29T18:27:49.153Z,4.97
2018-05-29T18:30:16.705Z,4.97
2018-05-29T18:32:44.263Z,5.53
2018-05-29T18:35:11.832Z,5.77
2018-05-29T18:37:39.376Z,4.37
2018-05-29T18:40:06.896Z,4.77
2018-05-29T18:42:35.033Z,5.03
2018-05-29T18:45:02.567Z,5.30
2018-05-29T18:47:30.071Z,5.50
2018-05-29T18:49:58.404Z,5.00
2018-05-29T18:52:25.910Z,4.97
2018-05-29T18:54:54.224Z,7.13
2018-05-29T18:57:21.751Z,7.73
2018-05-29T18:59:49.325Z,7.87
2018-05-29T19:02:16.850Z,7.53
2018-05-29T19:04:45.228Z,7.00
2018-05-29T19:07:13.553Z,6.10
2018-05-29T19:09:41.068Z,6.20
2018-05-29T19:12:09.882Z,6.40
2018-05-29T19:14:38.531Z,6.33
2018-05-29T19:17:06.155Z,5.97
2018-05-29T19:19:33.669Z,5.60
2018-05-29T19:22:02.025Z,5.93
2018-05-29T19:24:29.541Z,7.40
2018-05-29T19:26:57.082Z,5.43
2018-05-29T19:29:24.597Z,5.90
2018-05-29T19:31:52.111Z,5.67
2018-05-29T19:34:19.659Z,6.03
2018-05-29T19:36:47.165Z,6.33
2018-05-29T19:39:15.462Z,6.33
2018-05-29T19:41:43.763Z,6.73
2018-05-29T19:44:12.373Z,7.13
2018-05-29T19:46:40.022Z,6.00
2018-05-29T19:49:07.573Z,6.47
2018-05-29T19:51:35.105Z,6.60
2018-05-29T19:54:02.728Z,6.73
2018-05-29T19:56:30.329Z,6.90
2018-05-29T19:58:58.622Z,5.17
2018-05-29T20:01:27.282Z,5.07
2018-05-29T20:03:55.647Z,6.63
2018-05-29T20:06:24.134Z,4.07
2018-05-29T20:08:52.805Z,3.97
2018-05-29T20:11:20.414Z,3.63
2018-05-29T20:13:47.942Z,3.70
2018-05-29T20:16:15.534Z,3.53
2018-05-29T20:18:43.064Z,3.73
2018-05-29T20:21:11.493Z,3.67
2018-05-29T20:23:39.192Z,4.00
2018-05-29T20:26:06.852Z,4.30
2018-05-29T20:28:34.414Z,4.43
2018-05-29T20:31:02.741Z,4.60
2018-05-29T20:33:30.259Z,4.43
2018-05-29T20:35:58.565Z,4.70
2018-05-29T20:38:27.102Z,4.40
2018-05-29T20:40:54.627Z,4.27
2018-05-29T20:43:22.934Z,5.03
2018-05-29T20:45:50.432Z,5.03
2018-05-29T20:48:17.992Z,4.50
2018-05-29T20:50:45.510Z,4.50
2018-05-29T20:53:13.100Z,4.80
2018-05-29T20:55:40.638Z,4.43
2018-05-29T20:58:08.960Z,4.47
2018-05-29T21:00:36.505Z,5.03
2018-05-29T21:03:04.940Z,4.87
2018-05-29T21:05:32.470Z,4.57
2018-05-29T21:07:59.978Z,4.90
2018-05-29T21:10:29.727Z,5.77
2018-05-29T21:12:58.203Z,7.63
2018-05-29T21:15:25.756Z,9.10
2018-05-29T21:17:53.306Z,9.43
2018-05-29T21:20:20.908Z,10.03
2018-05-29T21:22:48.429Z,9.63
2018-05-29T21:25:16.524Z,10.57
2018-05-29T21:27:44.127Z,9.67
2018-05-29T21:30:11.695Z,10.40
2018-05-29T21:32:39.996Z,9.37
2018-05-29T21:35:07.583Z,9.93
2018-05-29T21:37:35.832Z,10.33
2018-05-29T21:40:03.347Z,10.30
2018-05-29T21:42:30.869Z,9.67
2018-05-29T21:44:58.388Z,9.80
2018-05-29T21:47:26.710Z,10.20
2018-05-29T21:49:54.224Z,9.13
2018-05-29T21:52:22.531Z,9.37
2018-05-29T21:54:50.055Z,9.53
2018-05-29T21:57:18.526Z,10.13
2018-05-29T21:59:46.830Z,10.00
2018-05-29T22:02:14.347Z,10.07
2018-05-29T22:04:41.870Z,9.90
2018-05-29T22:07:09.391Z,9.30
2018-05-29T22:09:37.664Z,9.27
2018-05-29T22:12:05.930Z,9.93
2018-05-29T22:14:34.214Z,9.40
2018-05-29T22:17:02.493Z,8.67
2018-05-29T22:19:30.775Z,9.97
2018-05-29T22:21:59.050Z,9.60
2018-05-29T22:24:28.075Z,10.33
2018-05-29T22:26:55.581Z,9.87
2018-05-29T22:29:23.854Z,9.27
2018-05-29T22:31:51.381Z,8.90
2018-05-29T22:34:18.908Z,9.63
2018-05-29T22:36:46.457Z,10.10
2018-05-29T22:39:13.979Z,9.10
2018-05-29T22:41:41.531Z,9.87
2018-05-29T22:44:09.020Z,9.13
2018-05-29T22:46:37.300Z,9.13
2018-05-29T22:49:04.787Z,8.50
2018-05-29T22:51:32.974Z,8.43
2018-05-29T22:54:01.087Z,8.10
2018-05-29T22:56:30.268Z,7.97
2018-05-29T22:58:57.766Z,8.17
2018-05-29T23:01:25.279Z,8.43
2018-05-29T23:03:52.802Z,8.50
2018-05-29T23:06:20.309Z,7.97
2018-05-29T23:08:47.838Z,9.83
2018-05-29T23:11:15.357Z,9.40
2018-05-29T23:13:42.915Z,9.53
2018-05-29T23:16:11.911Z,9.30
2018-05-29T23:18:39.467Z,8.70
2018-05-29T23:21:06.996Z,8.50
2018-05-29T23:23:34.503Z,7.80
2018-05-29T23:26:02.038Z,8.80
2018-05-29T23:28:30.376Z,8.57
2018-05-29T23:30:57.876Z,8.90
2018-05-29T23:33:27.055Z,9.37
2018-05-29T23:35:55.345Z,9.97
2018-05-29T23:38:23.619Z,10.40
2018-05-29T23:40:51.991Z,11.10
2018-05-29T23:43:20.315Z,11.90
2018-05-29T23:45:47.837Z,12.67
2018-05-29T23:48:16.136Z,11.73
2018-05-29T23:50:43.663Z,11.57
2018-05-29T23:53:11.951Z,12.40
2018-05-29T23:55:39.451Z,12.50
2018-05-29T23:58:06.959Z,13.63
